createdAt,value
2023-04-08T00:00:27.780Z,3.94
2023-04-08T00:02:27.965Z,3.94
2023-04-08T00:03:27.882Z,4.11
2023-04-08T00:04:27.907Z,4.22
2023-04-08T00:05:27.758Z,4.11
2023-04-08T00:06:27.806Z,4.11
2023-04-08T00:08:27.767Z,3.94
2023-04-08T00:09:27.773Z,3.78
2023-04-08T00:10:27.774Z,3.78
2023-04-08T00:11:27.764Z,3.94
2023-04-08T00:12:27.779Z,4.11
2023-04-08T00:13:27.762Z,3.94
2023-04-08T00:14:27.776Z,3.78
2023-04-08T00:15:27.781Z,3.78
2023-04-08T00:16:27.814Z,3.78
2023-04-08T00:17:27.782Z,3.94
2023-04-08T00:18:27.777Z,4.11
2023-04-08T00:19:27.777Z,3.78
2023-04-08T00:20:27.836Z,3.78
2023-04-08T00:21:27.777Z,3.67
2023-04-08T00:22:27.811Z,3.67
2023-04-08T00:24:27.787Z,3.39
2023-04-08T00:25:27.783Z,3.67
2023-04-08T00:26:27.784Z,3.56
2023-04-08T00:27:27.798Z,3.67
2023-04-08T00:29:27.797Z,3.67
2023-04-08T00:30:27.791Z,3.67
2023-04-08T00:31:27.813Z,3.56
2023-04-08T00:32:27.850Z,3.67
2023-04-08T00:33:27.797Z,3.56
2023-04-08T00:34:27.791Z,3.39
2023-04-08T00:35:27.818Z,3.67
2023-04-08T00:37:27.793Z,3.78
2023-04-08T00:38:27.822Z,3.67
2023-04-08T00:40:27.815Z,3.67
2023-04-08T00:41:27.792Z,3.78
2023-04-08T00:42:27.802Z,3.67
2023-04-08T00:44:27.817Z,3.67
2023-04-08T00:46:27.820Z,3.39
2023-04-08T00:47:27.801Z,3.67
2023-04-08T00:48:27.812Z,3.67
2023-04-08T00:50:27.812Z,3.39
2023-04-08T00:51:27.803Z,3.39
2023-04-08T00:52:27.813Z,3.67
2023-04-08T00:54:27.836Z,4.11
2023-04-08T00:56:27.843Z,3.78
2023-04-08T00:57:27.809Z,3.67
2023-04-08T00:58:27.815Z,3.78
2023-04-08T01:00:27.817Z,3.94
2023-04-08T01:01:27.898Z,3.67
2023-04-08T01:02:28.007Z,3.39
2023-04-08T01:03:28.023Z,3.56
2023-04-08T01:04:27.888Z,3.39
2023-04-08T01:05:27.820Z,3.67
2023-04-08T01:06:27.821Z,3.39
2023-04-08T01:07:27.813Z,3.67
2023-04-08T01:09:27.828Z,3.67
2023-04-08T01:10:27.862Z,3.56
2023-04-08T01:12:27.824Z,3.28
2023-04-08T01:13:27.812Z,3.56
2023-04-08T01:14:27.833Z,3.56
2023-04-08T01:15:27.838Z,3.39
2023-04-08T01:16:27.982Z,3.28
2023-04-08T01:17:27.836Z,3.11
2023-04-08T01:18:27.840Z,3.28
2023-04-08T01:19:27.833Z,3.28
2023-04-08T01:21:27.845Z,3.28
2023-04-08T01:22:27.846Z,3.39
2023-04-08T01:24:27.850Z,3.28
2023-04-08T01:25:27.838Z,3.39
2023-04-08T01:26:27.863Z,3.39
2023-04-08T01:28:27.833Z,3.39
2023-04-08T01:29:27.846Z,3.39
2023-04-08T01:30:27.835Z,3.56
2023-04-08T01:31:27.885Z,3.56
2023-04-08T01:32:27.883Z,3.39
2023-04-08T01:34:27.848Z,3.39
2023-04-08T01:35:27.883Z,3.67
2023-04-08T01:36:27.862Z,3.56
2023-04-08T01:37:27.867Z,3.67
2023-04-08T01:39:27.841Z,3.56
2023-04-08T01:40:27.851Z,3.56
2023-04-08T01:41:27.849Z,3.56
2023-04-08T01:42:27.917Z,3.39
2023-04-08T01:43:27.876Z,3.56
2023-04-08T01:44:27.862Z,3.67
2023-04-08T01:45:27.874Z,3.56
2023-04-08T01:46:27.897Z,3.67
2023-04-08T01:47:27.877Z,3.56
2023-04-08T01:48:27.870Z,3.67
2023-04-08T01:49:27.865Z,3.56
2023-04-08T01:50:27.857Z,3.67
2023-04-08T01:51:27.871Z,3.56
2023-04-08T01:52:27.856Z,3.56
2023-04-08T01:53:27.856Z,3.39
2023-04-08T01:54:27.870Z,3.67
2023-04-08T01:56:27.856Z,3.67
2023-04-08T01:57:27.865Z,3.67
2023-04-08T01:58:27.906Z,3.67
2023-04-08T02:00:27.887Z,3.56
2023-04-08T02:01:27.913Z,3.67
2023-04-08T02:02:28.025Z,3.67
2023-04-08T02:04:28.055Z,3.67
2023-04-08T02:05:27.877Z,3.67
2023-04-08T02:06:27.870Z,3.39
2023-04-08T02:07:27.876Z,3.39
2023-04-08T02:08:27.869Z,3.28
2023-04-08T02:09:27.864Z,3.39
2023-04-08T02:10:27.877Z,3.67
2023-04-08T02:11:27.900Z,3.56
2023-04-08T02:12:27.861Z,3.28
2023-04-08T02:13:27.879Z,3.67
2023-04-08T02:14:27.917Z,3.56
2023-04-08T02:15:27.873Z,3.67
2023-04-08T02:16:27.928Z,3.56
2023-04-08T02:17:27.942Z,3.28
2023-04-08T02:18:27.871Z,3.56
2023-04-08T02:19:27.879Z,3.39
2023-04-08T02:22:27.877Z,3.39
2023-04-08T02:23:27.884Z,3.56
2023-04-08T02:24:27.880Z,3.28
2023-04-08T02:25:27.876Z,3.39
2023-04-08T02:26:27.883Z,3.67
2023-04-08T02:27:27.894Z,3.11
2023-04-08T02:28:27.881Z,3.11
2023-04-08T02:29:27.886Z,3.39
2023-04-08T02:30:27.913Z,3.67
2023-04-08T02:31:27.981Z,3.56
2023-04-08T02:33:27.892Z,3
2023-04-08T02:35:27.901Z,3.56
2023-04-08T02:37:27.882Z,3.56
2023-04-08T02:38:27.893Z,3.39
2023-04-08T02:39:27.887Z,3.67
2023-04-08T02:41:27.885Z,3.67
2023-04-08T02:42:27.893Z,3.28
2023-04-08T02:44:27.972Z,3.11
2023-04-08T02:46:27.952Z,3.56
2023-04-08T02:48:27.911Z,3.39
2023-04-08T02:49:27.911Z,3.39
2023-04-08T02:51:27.891Z,3.11
2023-04-08T02:52:27.887Z,3
2023-04-08T02:53:27.892Z,3
2023-04-08T02:54:27.898Z,3.28
2023-04-08T02:56:27.884Z,3.28
2023-04-08T02:57:27.900Z,3.11
2023-04-08T02:58:27.897Z,3.28
2023-04-08T02:59:27.877Z,3.11
2023-04-08T03:00:27.904Z,3
2023-04-08T03:01:27.954Z,3
2023-04-08T03:02:28.014Z,3
2023-04-08T03:03:28.055Z,3.39
2023-04-08T03:04:27.889Z,3.28
2023-04-08T03:06:27.912Z,3.39
2023-04-08T03:07:27.895Z,3.28
2023-04-08T03:08:27.882Z,3.28
2023-04-08T03:09:27.898Z,3
2023-04-08T03:10:27.880Z,3.56
2023-04-08T03:11:27.905Z,3.39
2023-04-08T03:13:27.895Z,3.67
2023-04-08T03:15:27.889Z,3.56
2023-04-08T03:16:27.911Z,3.67
2023-04-08T03:17:27.965Z,3.56
2023-04-08T03:18:27.922Z,3.67
2023-04-08T03:20:27.925Z,3.56
2023-04-08T03:22:27.901Z,3.39
2023-04-08T03:23:27.898Z,3.67
2023-04-08T03:24:27.895Z,3.39
2023-04-08T03:25:27.901Z,3.39
2023-04-08T03:26:27.915Z,3.67
2023-04-08T03:27:27.909Z,3.67
2023-04-08T03:28:27.907Z,3.67
2023-04-08T03:29:27.897Z,3.67
2023-04-08T03:30:27.941Z,3.56
2023-04-08T03:31:27.902Z,3.39
2023-04-08T03:32:27.959Z,3.11
2023-04-08T03:33:27.951Z,3.28
2023-04-08T03:34:27.959Z,3.56
2023-04-08T03:36:27.938Z,3.56
2023-04-08T03:37:27.921Z,3.56
2023-04-08T03:38:27.945Z,3.67
2023-04-08T03:40:27.916Z,3.67
2023-04-08T03:41:27.933Z,3.61
2023-04-08T03:42:27.926Z,3.67
2023-04-08T03:44:27.923Z,3.61
2023-04-08T03:45:27.933Z,3.39
2023-04-08T03:46:28.099Z,3.11
2023-04-08T03:47:27.930Z,3.39
2023-04-08T03:48:27.942Z,3.56
2023-04-08T03:49:27.927Z,3.44
2023-04-08T03:50:27.992Z,3.61
2023-04-08T03:52:27.937Z,3.61
2023-04-08T03:53:27.943Z,3.67
2023-04-08T03:55:27.968Z,3.56
2023-04-08T03:57:27.972Z,3.67
2023-04-08T03:58:27.947Z,3.44
2023-04-08T03:59:27.957Z,3.56
2023-04-08T04:01:27.942Z,4.28
2023-04-08T04:02:28.210Z,4.39
2023-04-08T04:03:28.066Z,4.17
2023-04-08T04:05:27.950Z,3.5
2023-04-08T04:06:28.033Z,3.44
2023-04-08T04:07:27.943Z,3.67
2023-04-08T04:08:27.957Z,3.5
2023-04-08T04:09:28.003Z,3.61
2023-04-08T04:11:27.978Z,3.61
2023-04-08T04:13:27.998Z,3.44
2023-04-08T04:14:27.979Z,3.33
2023-04-08T04:15:28.058Z,3.44
2023-04-08T04:16:27.969Z,3.83
2023-04-08T04:17:27.988Z,3.72
2023-04-08T04:18:27.976Z,3.72
2023-04-08T04:20:27.976Z,3.83
2023-04-08T04:21:27.977Z,3.72
2023-04-08T04:22:28.012Z,4.22
2023-04-08T04:24:27.981Z,3.83
2023-04-08T04:25:28.010Z,4.28
2023-04-08T04:26:27.995Z,4.28
2023-04-08T04:27:27.980Z,4.44
2023-04-08T04:28:27.993Z,4.28
2023-04-08T04:30:27.990Z,4.39
2023-04-08T04:31:28.078Z,4.44
2023-04-08T04:32:28.000Z,4.44
2023-04-08T04:33:28.012Z,4.72
2023-04-08T04:34:27.985Z,4.17
2023-04-08T04:35:28.001Z,4.17
2023-04-08T04:36:28.029Z,4.44
2023-04-08T04:37:27.991Z,4.28
2023-04-08T04:38:28.037Z,4.44
2023-04-08T04:40:27.995Z,4.28
2023-04-08T04:41:27.995Z,4.44
2023-04-08T04:42:28.003Z,4.44
2023-04-08T04:43:27.996Z,3.72
2023-04-08T04:45:28.009Z,4.17
2023-04-08T04:46:28.002Z,4.28
2023-04-08T04:47:28.027Z,4.28
2023-04-08T04:48:28.037Z,4.28
2023-04-08T04:50:28.000Z,4.17
2023-04-08T04:51:28.003Z,4
2023-04-08T04:52:28.057Z,4.17
2023-04-08T04:53:27.989Z,4.5
2023-04-08T04:54:28.034Z,4.44
2023-04-08T04:55:28.017Z,4.17
2023-04-08T04:56:28.012Z,4.72
2023-04-08T04:57:28.005Z,4.72
2023-04-08T04:58:28.022Z,4.72
2023-04-08T04:59:28.023Z,4.72
2023-04-08T05:00:28.025Z,4.39
2023-04-08T05:01:28.081Z,4.17
2023-04-08T05:03:28.063Z,4.56
2023-04-08T05:05:28.144Z,4.89
2023-04-08T05:06:28.031Z,4.56
2023-04-08T05:08:28.362Z,4.56
2023-04-08T05:09:28.042Z,4.44
2023-04-08T05:10:28.075Z,4.56
2023-04-08T05:12:28.051Z,4.44
2023-04-08T05:14:28.054Z,4.56
2023-04-08T05:15:28.065Z,4.44
2023-04-08T05:16:28.132Z,4.56
2023-04-08T05:17:28.141Z,4.72
2023-04-08T05:19:28.048Z,4.72
2023-04-08T05:20:28.067Z,4.72
2023-04-08T05:21:28.062Z,4.17
2023-04-08T05:22:28.078Z,4.56
2023-04-08T05:23:28.066Z,4.72
2023-04-08T05:24:28.076Z,4.56
2023-04-08T05:26:28.101Z,4.72
2023-04-08T05:28:28.073Z,4.28
2023-04-08T05:30:28.074Z,4.72
2023-04-08T05:31:28.113Z,4.56
2023-04-08T05:32:28.077Z,4.72
2023-04-08T05:33:28.074Z,4.72
2023-04-08T05:34:28.085Z,4.72
2023-04-08T05:35:28.118Z,4.72
2023-04-08T05:36:28.099Z,4.72
2023-04-08T05:37:28.081Z,4.89
2023-04-08T05:38:28.085Z,4.56
2023-04-08T05:39:28.092Z,4.72
2023-04-08T05:41:28.081Z,4.56
2023-04-08T05:42:28.120Z,4.44
2023-04-08T05:44:28.100Z,4.72
2023-04-08T05:45:28.103Z,4.72
2023-04-08T05:46:28.154Z,4.72
2023-04-08T05:47:28.117Z,4.72
2023-04-08T05:48:28.097Z,5
2023-04-08T05:49:28.115Z,4.72
2023-04-08T05:50:28.101Z,5
2023-04-08T05:51:28.100Z,5.17
2023-04-08T05:52:28.120Z,4.72
2023-04-08T05:53:28.111Z,4.72
2023-04-08T05:55:28.103Z,5.17
2023-04-08T05:56:28.115Z,5.44
2023-04-08T05:57:28.115Z,5.17
2023-04-08T05:58:28.132Z,5.17
2023-04-08T06:00:28.127Z,5
2023-04-08T06:01:28.131Z,5
2023-04-08T06:02:28.368Z,5
2023-04-08T06:03:28.202Z,5
2023-04-08T06:04:28.232Z,5.17
2023-04-08T06:05:28.133Z,5
2023-04-08T06:07:28.156Z,5.17
2023-04-08T06:08:28.106Z,5
2023-04-08T06:09:28.132Z,5.17
2023-04-08T06:11:28.168Z,4.56
2023-04-08T06:12:28.128Z,5
2023-04-08T06:13:28.122Z,4.72
2023-04-08T06:14:28.173Z,5
2023-04-08T06:15:28.124Z,5.17
2023-04-08T06:16:28.161Z,5.33
2023-04-08T06:17:28.153Z,5.33
2023-04-08T06:18:28.128Z,5.33
2023-04-08T06:19:28.157Z,5.17
2023-04-08T06:21:28.141Z,5.17
2023-04-08T06:23:28.160Z,5.33
2023-04-08T06:24:28.137Z,5.33
2023-04-08T06:26:28.159Z,5.44
2023-04-08T06:27:28.146Z,5.44
2023-04-08T06:29:28.142Z,5.17
2023-04-08T06:30:28.234Z,5.33
2023-04-08T06:32:28.197Z,5.44
2023-04-08T06:34:28.152Z,5.33
2023-04-08T06:36:28.141Z,5.44
2023-04-08T06:37:28.163Z,5.72
2023-04-08T06:38:28.143Z,5.61
2023-04-08T06:39:28.156Z,5.33
2023-04-08T06:41:28.139Z,5.61
2023-04-08T06:42:28.154Z,6
2023-04-08T06:43:28.152Z,5.83
2023-04-08T06:44:28.297Z,5.72
2023-04-08T06:45:28.165Z,5.33
2023-04-08T06:46:28.246Z,5.72
2023-04-08T06:48:28.156Z,5.83
2023-04-08T06:49:28.168Z,5.72
2023-04-08T06:51:28.162Z,6
2023-04-08T06:52:28.196Z,6
2023-04-08T06:54:28.173Z,6
2023-04-08T06:55:28.173Z,6.11
2023-04-08T06:56:28.179Z,5.44
2023-04-08T06:57:28.172Z,5.72
2023-04-08T06:58:28.197Z,6
2023-04-08T06:59:28.156Z,6
2023-04-08T07:00:28.172Z,5.44
2023-04-08T07:01:28.258Z,5.61
2023-04-08T07:02:28.232Z,5
2023-04-08T07:04:28.171Z,5.17
2023-04-08T07:05:28.189Z,5.44
2023-04-08T07:06:28.170Z,5.39
2023-04-08T07:07:28.183Z,5.67
2023-04-08T07:08:28.182Z,5.33
2023-04-08T07:10:28.185Z,5.5
2023-04-08T07:11:28.182Z,5.67
2023-04-08T07:12:28.202Z,5.72
2023-04-08T07:13:28.190Z,5.5
2023-04-08T07:15:28.186Z,5.56
2023-04-08T07:16:28.222Z,5.78
2023-04-08T07:17:28.203Z,5.67
2023-04-08T07:18:28.221Z,5.39
2023-04-08T07:19:28.186Z,5.78
2023-04-08T07:20:28.594Z,5.56
2023-04-08T07:22:28.197Z,5.56
2023-04-08T07:23:28.194Z,6.22
2023-04-08T07:24:28.205Z,5.78
2023-04-08T07:26:28.190Z,5.78
2023-04-08T07:27:28.207Z,6.22
2023-04-08T07:29:28.203Z,5.67
2023-04-08T07:30:28.199Z,5.78
2023-04-08T07:31:28.286Z,5.67
2023-04-08T07:32:28.222Z,5.39
2023-04-08T07:33:28.213Z,5.39
2023-04-08T07:34:28.231Z,5.78
2023-04-08T07:36:28.211Z,5.39
2023-04-08T07:37:28.266Z,5.22
2023-04-08T07:38:28.196Z,5.11
2023-04-08T07:39:28.206Z,5.39
2023-04-08T07:40:28.217Z,5.22
2023-04-08T07:41:28.203Z,5.22
2023-04-08T07:42:28.202Z,5.39
2023-04-08T07:44:28.221Z,5.78
2023-04-08T07:45:28.226Z,5.78
2023-04-08T07:46:28.237Z,5.78
2023-04-08T07:47:28.226Z,5.78
2023-04-08T07:48:28.196Z,5.78
2023-04-08T07:49:28.219Z,5.94
2023-04-08T07:50:28.230Z,5.78
2023-04-08T07:52:28.213Z,5.39
2023-04-08T07:53:28.199Z,5.67
2023-04-08T07:54:28.225Z,5.78
2023-04-08T07:55:28.206Z,5.78
2023-04-08T07:56:28.233Z,5.78
2023-04-08T07:57:28.203Z,5.56
2023-04-08T07:58:28.211Z,5.39
2023-04-08T07:59:28.224Z,5.78
2023-04-08T08:01:28.219Z,5.78
2023-04-08T08:02:28.288Z,5.67
2023-04-08T08:03:28.302Z,5.94
2023-04-08T08:04:28.429Z,5.56
2023-04-08T08:06:28.252Z,5.39
2023-04-08T08:08:28.232Z,5.22
2023-04-08T08:09:28.672Z,4.94
2023-04-08T08:10:28.219Z,4.83
2023-04-08T08:12:28.221Z,4.67
2023-04-08T08:14:28.217Z,4.94
2023-04-08T08:15:28.222Z,4.5
2023-04-08T08:17:28.307Z,5.39
2023-04-08T08:18:28.233Z,5.39
2023-04-08T08:19:28.210Z,5.39
2023-04-08T08:20:28.213Z,5.67
2023-04-08T08:21:28.216Z,5.39
2023-04-08T08:22:28.234Z,5.39
2023-04-08T08:24:28.224Z,5.22
2023-04-08T08:25:28.219Z,5.22
2023-04-08T08:26:28.224Z,5.11
2023-04-08T08:28:28.233Z,5.39
2023-04-08T08:29:28.236Z,5.39
2023-04-08T08:30:28.226Z,5.39
2023-04-08T08:31:28.310Z,5.39
2023-04-08T08:33:28.234Z,5.67
2023-04-08T08:35:28.237Z,5.67
2023-04-08T08:36:28.251Z,5.56
2023-04-08T08:37:28.243Z,5.39
2023-04-08T08:38:28.264Z,5.56
2023-04-08T08:39:28.222Z,5.39
2023-04-08T08:40:28.238Z,5.56
2023-04-08T08:42:28.237Z,5.78
2023-04-08T08:43:28.228Z,5.67
2023-04-08T08:45:28.240Z,5.78
2023-04-08T08:46:28.256Z,5.67
2023-04-08T08:48:28.256Z,5.56
2023-04-08T08:49:28.250Z,5.78
2023-04-08T08:50:28.245Z,5.78
2023-04-08T08:51:28.266Z,5.56
2023-04-08T08:53:28.254Z,5.22
2023-04-08T08:54:28.277Z,5.11
2023-04-08T08:56:28.271Z,4.83
2023-04-08T08:57:28.251Z,4.94
2023-04-08T08:58:28.247Z,5.39
2023-04-08T08:59:28.255Z,4.94
2023-04-08T09:00:28.282Z,4.83
2023-04-08T09:02:28.446Z,5.39
2023-04-08T09:03:28.936Z,5.56
2023-04-08T09:04:28.354Z,6.22
2023-04-08T09:05:28.389Z,6.5
2023-04-08T09:06:28.280Z,6.5
2023-04-08T09:08:28.313Z,5.94
2023-04-08T09:09:28.264Z,5.56
2023-04-08T09:10:28.300Z,5.67
2023-04-08T09:11:28.267Z,5.94
2023-04-08T09:12:28.284Z,5.94
2023-04-08T09:13:28.278Z,5.67
2023-04-08T09:14:28.267Z,5.78
2023-04-08T09:15:28.275Z,5.39
2023-04-08T09:16:28.544Z,5.56
2023-04-08T09:17:28.285Z,5.56
2023-04-08T09:18:28.280Z,5.94
2023-04-08T09:20:28.291Z,6.06
2023-04-08T09:21:28.279Z,6.06
2023-04-08T09:22:28.285Z,6.06
2023-04-08T09:23:28.281Z,5.94
2023-04-08T09:25:28.306Z,5.94
2023-04-08T09:26:28.343Z,5.78
2023-04-08T09:28:28.306Z,5.67
2023-04-08T09:29:30.024Z,5.22
2023-04-08T09:30:28.303Z,4.5
2023-04-08T09:31:28.324Z,4.94
2023-04-08T09:32:28.305Z,5.22
2023-04-08T09:33:28.299Z,5.22
2023-04-08T09:34:28.306Z,5.22
2023-04-08T09:35:28.298Z,4.94
2023-04-08T09:36:28.310Z,4.94
2023-04-08T09:37:28.291Z,4.94
2023-04-08T09:38:28.306Z,5.39
2023-04-08T09:39:28.336Z,5.11
2023-04-08T09:41:28.313Z,6.06
2023-04-08T09:42:28.326Z,6.22
2023-04-08T09:43:28.301Z,6.22
2023-04-08T09:44:28.324Z,6.06
2023-04-08T09:45:28.409Z,5.56
2023-04-08T09:46:28.330Z,5.78
2023-04-08T09:48:28.324Z,6.22
2023-04-08T09:50:28.328Z,5.78
2023-04-08T09:52:28.322Z,5.78
2023-04-08T09:53:28.336Z,5.56
2023-04-08T09:54:28.321Z,5.22
2023-04-08T09:55:28.331Z,5.11
2023-04-08T09:56:28.330Z,5.22
2023-04-08T09:57:28.326Z,5.11
2023-04-08T09:58:28.361Z,5.39
2023-04-08T10:00:28.330Z,4.83
2023-04-08T10:01:28.441Z,4.83
2023-04-08T10:02:28.415Z,5.22
2023-04-08T10:03:28.598Z,5.22
2023-04-08T10:04:28.422Z,5.11
2023-04-08T10:05:28.345Z,5.22
2023-04-08T10:06:28.352Z,5.39
2023-04-08T10:07:28.335Z,5.11
2023-04-08T10:08:28.337Z,5.11
2023-04-08T10:09:28.360Z,4.67
2023-04-08T10:10:28.345Z,4.94
2023-04-08T10:11:28.340Z,4.94
2023-04-08T10:12:28.338Z,4.83
2023-04-08T10:13:28.400Z,5.22
2023-04-08T10:14:28.376Z,4.83
2023-04-08T10:16:28.398Z,5.11
2023-04-08T10:17:28.377Z,5.39
2023-04-08T10:19:28.356Z,5.78
2023-04-08T10:20:28.378Z,5.39
2023-04-08T10:22:28.367Z,5.67
2023-04-08T10:23:28.369Z,5.56
2023-04-08T10:24:28.367Z,5.39
2023-04-08T10:26:28.379Z,5.11
2023-04-08T10:28:28.369Z,4.94
2023-04-08T10:29:28.372Z,4.94
2023-04-08T10:30:28.393Z,4.83
2023-04-08T10:32:28.438Z,4.83
2023-04-08T10:34:28.369Z,4.94
2023-04-08T10:35:28.392Z,4.5
2023-04-08T10:36:28.366Z,4.67
2023-04-08T10:37:28.369Z,4.39
2023-04-08T10:39:28.383Z,4.39
2023-04-08T10:40:28.369Z,4.22
2023-04-08T10:41:28.367Z,3.78
2023-04-08T10:42:28.375Z,4.11
2023-04-08T10:44:28.372Z,4.22
2023-04-08T10:45:28.378Z,4.39
2023-04-08T10:46:28.513Z,4.22
2023-04-08T10:48:28.385Z,4.39
2023-04-08T10:49:28.374Z,4.5
2023-04-08T10:50:28.389Z,4.39
2023-04-08T10:51:28.789Z,4.39
2023-04-08T10:52:28.386Z,4.11
2023-04-08T10:53:28.398Z,4.11
2023-04-08T10:54:28.375Z,4.11
2023-04-08T10:55:28.404Z,4.22
2023-04-08T10:56:28.398Z,4.11
2023-04-08T10:57:28.392Z,4.11
2023-04-08T10:58:28.397Z,3.78
2023-04-08T10:59:28.387Z,4.11
2023-04-08T11:00:28.396Z,4.11
2023-04-08T11:02:28.506Z,4.11
2023-04-08T11:03:28.614Z,3.94
2023-04-08T11:04:28.547Z,3.94
2023-04-08T11:06:28.402Z,3.94
2023-04-08T11:07:28.392Z,3.78
2023-04-08T11:08:28.410Z,4.11
2023-04-08T11:09:28.402Z,3.78
2023-04-08T11:10:28.467Z,3.39
2023-04-08T11:12:28.436Z,4.11
2023-04-08T11:13:28.409Z,3.78
2023-04-08T11:14:28.419Z,3.94
2023-04-08T11:15:28.456Z,4.11
2023-04-08T11:16:28.512Z,4.11
2023-04-08T11:17:28.437Z,3.94
2023-04-08T11:18:28.461Z,3.78
2023-04-08T11:20:28.423Z,4.39
2023-04-08T11:21:28.414Z,3.78
2023-04-08T11:22:28.424Z,4.39
2023-04-08T11:24:28.429Z,3.94
2023-04-08T11:26:28.458Z,4.11
2023-04-08T11:27:28.421Z,4.11
2023-04-08T11:28:28.420Z,3.94
2023-04-08T11:29:28.448Z,4.11
2023-04-08T11:30:28.443Z,3.67
2023-04-08T11:31:28.443Z,3.67
2023-04-08T11:32:28.466Z,3.56
2023-04-08T11:33:28.429Z,3.56
2023-04-08T11:34:28.474Z,3.28
2023-04-08T11:35:28.472Z,3.78
2023-04-08T11:36:28.432Z,3.78
2023-04-08T11:37:29.591Z,3.94
2023-04-08T11:39:28.447Z,4.11
2023-04-08T11:40:28.431Z,3.94
2023-04-08T11:41:28.440Z,4.11
2023-04-08T11:42:28.436Z,3.94
2023-04-08T11:44:28.439Z,4.11
2023-04-08T11:45:28.446Z,4.5
2023-04-08T11:47:28.497Z,4.22
2023-04-08T11:48:28.442Z,4.11
2023-04-08T11:49:28.459Z,4.11
2023-04-08T11:50:28.465Z,3.78
2023-04-08T11:52:28.446Z,3.67
2023-04-08T11:54:28.458Z,3.39
2023-04-08T11:55:28.455Z,3.67
2023-04-08T11:56:28.442Z,3.67
2023-04-08T11:57:28.458Z,3.67
2023-04-08T11:58:28.455Z,3.28
2023-04-08T11:59:29.457Z,3.56
2023-04-08T12:00:28.457Z,3.56
2023-04-08T12:01:28.476Z,3.67
2023-04-08T12:03:28.512Z,3.56
2023-04-08T12:04:28.546Z,3.78
2023-04-08T12:05:28.465Z,3.94
2023-04-08T12:06:28.479Z,3.67
2023-04-08T12:07:28.452Z,3.94
2023-04-08T12:08:28.475Z,4.11
2023-04-08T12:09:28.457Z,3.78
2023-04-08T12:10:28.463Z,4.11
2023-04-08T12:12:28.477Z,3.78
2023-04-08T12:14:28.627Z,3.67
2023-04-08T12:16:28.552Z,3.78
2023-04-08T12:18:28.480Z,4.11
2023-04-08T12:20:28.490Z,4.22
2023-04-08T12:21:28.494Z,3.78
2023-04-08T12:22:28.498Z,3.78
2023-04-08T12:23:28.467Z,4.11
2023-04-08T12:24:28.471Z,3.78
2023-04-08T12:25:28.467Z,4.39
2023-04-08T12:27:28.490Z,3.94
2023-04-08T12:28:28.483Z,4.11
2023-04-08T12:29:28.488Z,4.22
2023-04-08T12:30:28.485Z,4.11
2023-04-08T12:31:28.550Z,3.67
2023-04-08T12:33:28.486Z,4.11
2023-04-08T12:35:28.500Z,4.11
2023-04-08T12:37:28.495Z,4.11
2023-04-08T12:38:28.520Z,4.11
2023-04-08T12:40:28.493Z,3.94
2023-04-08T12:41:28.486Z,4.11
2023-04-08T12:42:28.499Z,3.94
2023-04-08T12:43:28.483Z,3.78
2023-04-08T12:44:28.496Z,3.94
2023-04-08T12:45:28.493Z,3.78
2023-04-08T12:46:28.511Z,3.67
2023-04-08T12:47:28.500Z,3.67
2023-04-08T12:48:28.489Z,3.94
2023-04-08T12:49:28.491Z,3.78
2023-04-08T12:50:28.491Z,3.94
2023-04-08T12:51:28.491Z,3.94
2023-04-08T12:52:28.489Z,4.11
2023-04-08T12:53:28.566Z,4.11
2023-04-08T12:54:28.524Z,3.94
2023-04-08T12:55:28.490Z,3.78
2023-04-08T12:56:28.499Z,4.5
2023-04-08T12:57:28.497Z,4.5
2023-04-08T12:58:28.505Z,4.67
2023-04-08T12:59:28.499Z,4.67
2023-04-08T13:01:28.612Z,4.5
2023-04-08T13:02:28.594Z,4.39
2023-04-08T13:03:28.625Z,3.94
2023-04-08T13:04:28.500Z,4.22
2023-04-08T13:05:40.089Z,4.5
2023-04-08T13:06:28.497Z,4.22
2023-04-08T13:07:28.535Z,4.22
2023-04-08T13:09:28.502Z,4.5
2023-04-08T13:10:28.537Z,4.5
2023-04-08T13:12:28.505Z,4.39
2023-04-08T13:13:28.527Z,4.11
2023-04-08T13:14:28.494Z,4.67
2023-04-08T13:15:28.497Z,4.67
2023-04-08T13:16:28.547Z,4.5
2023-04-08T13:18:28.507Z,3.67
2023-04-08T13:20:28.499Z,3.39
2023-04-08T13:22:28.504Z,3.78
2023-04-08T13:23:28.553Z,3.67
2023-04-08T13:24:28.503Z,3.78
2023-04-08T13:25:28.524Z,3.78
2023-04-08T13:26:28.538Z,4.11
2023-04-08T13:27:28.503Z,4.11
2023-04-08T13:28:28.533Z,4.22
2023-04-08T13:29:28.526Z,4.39
2023-04-08T13:30:28.526Z,4.5
2023-04-08T13:31:28.544Z,4.22
2023-04-08T13:32:28.545Z,4.39
2023-04-08T13:33:28.500Z,4.39
2023-04-08T13:34:28.524Z,4.39
2023-04-08T13:36:28.829Z,4.22
2023-04-08T13:38:28.521Z,4.39
2023-04-08T13:39:28.536Z,4.5
2023-04-08T13:41:28.568Z,3.94
2023-04-08T13:42:28.546Z,4.22
2023-04-08T13:43:28.506Z,4.11
2023-04-08T13:44:28.526Z,3.78
2023-04-08T13:46:28.581Z,3.78
2023-04-08T13:47:28.544Z,3.56
2023-04-08T13:49:28.516Z,3.28
2023-04-08T13:51:28.543Z,3.11
2023-04-08T13:53:28.533Z,3.11
2023-04-08T13:54:28.522Z,3.28
2023-04-08T13:56:28.528Z,2.83
2023-04-08T13:58:28.548Z,3.28
2023-04-08T13:59:28.510Z,3.11
2023-04-08T14:00:28.523Z,3.28
2023-04-08T14:01:28.637Z,3.28
2023-04-08T14:03:28.525Z,3.11
2023-04-08T14:04:28.542Z,3.67
2023-04-08T14:05:28.523Z,3.78
2023-04-08T14:07:28.530Z,3.56
2023-04-08T14:08:28.546Z,3.67
2023-04-08T14:10:28.517Z,3.78
2023-04-08T14:11:28.518Z,3.94
2023-04-08T14:12:28.544Z,4.22
2023-04-08T14:14:28.559Z,3.94
2023-04-08T14:16:28.567Z,4.39
2023-04-08T14:17:28.533Z,3.94
2023-04-08T14:18:28.518Z,3.94
2023-04-08T14:19:28.526Z,4.11
2023-04-08T14:20:28.529Z,3.78
2023-04-08T14:21:28.526Z,4.11
2023-04-08T14:22:28.519Z,4.11
2023-04-08T14:23:28.535Z,3.94
2023-04-08T14:24:28.525Z,3.94
2023-04-08T14:26:28.521Z,3.94
2023-04-08T14:27:28.531Z,3.94
2023-04-08T14:29:28.535Z,4.22
2023-04-08T14:30:28.733Z,4.11
2023-04-08T14:32:28.533Z,3.67
2023-04-08T14:33:28.524Z,3.78
2023-04-08T14:35:28.541Z,4.11
2023-04-08T14:36:28.513Z,3.94
2023-04-08T14:37:28.529Z,4.11
2023-04-08T14:38:28.545Z,3.94
2023-04-08T14:39:28.524Z,3.78
2023-04-08T14:40:28.533Z,3.78
2023-04-08T14:42:28.533Z,4
2023-04-08T14:43:28.530Z,3.94
2023-04-08T14:44:28.534Z,3.78
2023-04-08T14:46:29.237Z,3.67
2023-04-08T14:47:28.581Z,3.67
2023-04-08T14:48:28.545Z,3.56
2023-04-08T14:49:28.545Z,3.67
2023-04-08T14:50:28.557Z,3.56
2023-04-08T14:51:28.535Z,3.67
2023-04-08T14:52:28.552Z,3.56
2023-04-08T14:54:28.553Z,3.39
2023-04-08T14:56:28.573Z,3.44
2023-04-08T14:57:28.563Z,3.39
2023-04-08T14:59:28.560Z,3.72
2023-04-08T15:00:28.559Z,3.56
2023-04-08T15:01:28.574Z,3.67
2023-04-08T15:02:28.714Z,3.56
2023-04-08T15:04:28.674Z,3.39
2023-04-08T15:05:28.560Z,3.56
2023-04-08T15:06:28.572Z,3.39
2023-04-08T15:07:28.585Z,3.56
2023-04-08T15:08:28.560Z,3.56
2023-04-08T15:09:28.578Z,3.28
2023-04-08T15:10:28.581Z,3.28
2023-04-08T15:11:28.568Z,3.11
2023-04-08T15:12:28.577Z,3
2023-04-08T15:13:28.629Z,3.28
2023-04-08T15:15:28.589Z,3
2023-04-08T15:16:28.648Z,2.83
2023-04-08T15:17:28.623Z,3.11
2023-04-08T15:18:28.624Z,2.83
2023-04-08T15:19:28.582Z,3.28
2023-04-08T15:20:28.587Z,3.28
2023-04-08T15:21:28.614Z,3.28
2023-04-08T15:22:28.603Z,2.89
2023-04-08T15:23:28.587Z,3.11
2023-04-08T15:24:28.598Z,3.11
2023-04-08T15:25:28.604Z,3
2023-04-08T15:26:28.601Z,3.11
2023-04-08T15:27:28.608Z,3.06
2023-04-08T15:28:28.597Z,3.28
2023-04-08T15:29:28.615Z,3.06
2023-04-08T15:30:28.619Z,2.78
2023-04-08T15:31:28.643Z,3.06
2023-04-08T15:32:28.619Z,3
2023-04-08T15:33:28.621Z,2.83
2023-04-08T15:34:28.735Z,3.11
2023-04-08T15:35:28.604Z,3.11
2023-04-08T15:36:28.617Z,3.17
2023-04-08T15:38:28.620Z,3.11
2023-04-08T15:39:28.604Z,3.28
2023-04-08T15:40:28.622Z,3.33
2023-04-08T15:42:28.615Z,3.17
2023-04-08T15:43:28.632Z,3.11
2023-04-08T15:44:28.612Z,3
2023-04-08T15:45:28.652Z,2.61
2023-04-08T15:47:28.634Z,3
2023-04-08T15:48:28.647Z,3
2023-04-08T15:49:28.633Z,3.17
2023-04-08T15:50:28.698Z,3
2023-04-08T15:51:28.636Z,3
2023-04-08T15:52:28.629Z,3.17
2023-04-08T15:54:30.869Z,2.89
2023-04-08T15:55:28.633Z,3.11
2023-04-08T15:56:28.659Z,3.17
2023-04-08T15:58:28.636Z,3.11
2023-04-08T15:59:28.638Z,3.28
2023-04-08T16:00:28.631Z,3.17
2023-04-08T16:01:28.671Z,3.28
2023-04-08T16:02:28.710Z,3.17
2023-04-08T16:03:28.818Z,3
2023-04-08T16:04:28.734Z,3
2023-04-08T16:05:30.232Z,3
2023-04-08T16:06:28.697Z,3
2023-04-08T16:08:28.652Z,3.17
2023-04-08T16:09:28.659Z,3.44
2023-04-08T16:10:28.659Z,3.28
2023-04-08T16:11:28.661Z,3.44
2023-04-08T16:12:28.644Z,3.33
2023-04-08T16:13:28.656Z,3.11
2023-04-08T16:14:28.659Z,3.33
2023-04-08T16:15:28.725Z,3.33
2023-04-08T16:17:28.673Z,3.33
2023-04-08T16:18:28.700Z,2.94
2023-04-08T16:19:28.670Z,2.72
2023-04-08T16:21:28.703Z,3.17
2023-04-08T16:22:28.692Z,3
2023-04-08T16:24:28.668Z,2.72
2023-04-08T16:25:28.669Z,3
2023-04-08T16:26:28.674Z,3.17
2023-04-08T16:27:28.683Z,3
2023-04-08T16:28:28.674Z,3.11
2023-04-08T16:29:28.686Z,3